Historique des mesures à Cassis (13260), France
Quotidien Résumé Fevrier 6, 2017 Unités:  US    Métrique   Métrique/US
« Précédent (Jour)
Suivant (Jour) »
Quotidien Hebdomadaire Mensuel Annuel Période au choix
  Maximum: Minimum: Moyenne:
Température: 32 °F 47.3 °F 48.9 °F
Point de rosée: 32 °F 35.1 °F 36.3 °F
Humidité: Humidity % 53 % 58 %
Vitesse du vent: WindSpeedKMH mph 6.1 mph 25 mph
Rafales: WindSpeedGustKMH mph - -
Vent:- - SSE
Pression: 0 in 29.5 in -
Précipitations: 12.7 in    
Historical Graphs
 
 
Mesures pour : Fevrier 6, 2017
Heure Temperature Point de rosée Pression Vent Vitesse du vent Rafales Humidité Pluie (par heure) Conditions
32 °F 32 °F 0 in Calm     Humidity % 0 in SoftwareType W/m2
00:11 48.2 °F 37.8 °F 29.5 in NW 16.3 mph 16.3 mph 67 % 0 in open2300-1.11 W/m2
01:10 47.8 °F 37.4 °F 29.5 in WNW 14.3 mph 39.9 mph 67 % 0 in open2300-1.11 W/m2
02:11 47.7 °F 36.9 °F 29.5 in NNW 35.2 mph 45.1 mph 66 % 0 in open2300-1.11 W/m2
03:10 47.3 °F 37.2 °F 29.5 in NNE 18.7 mph 19.1 mph 68 % 0 in open2300-1.11 W/m2
04:11 47.5 °F 38.1 °F 29.5 in North 26.5 mph 50.0 mph 70 % 0 in open2300-1.11 W/m2
05:10 47.8 °F 38.5 °F 29.5 in NNW 20.6 mph 29.1 mph 70 % 0 in open2300-1.11 W/m2
06:11 48.4 °F 37.9 °F 29.5 in NNE 36.0 mph 38.1 mph 67 % 0 in open2300-1.11 W/m2
07:10 48.4 °F 37 °F 29.6 in WNW 21.6 mph 42.8 mph 65 % 0 in open2300-1.11 W/m2
08:11 48.6 °F 36.9 °F 29.6 in NNE 15.8 mph 27.7 mph 64 % 0 in open2300-1.11 W/m2
09:10 49.1 °F 36 °F 29.5 in NE 32.3 mph 42.8 mph 60 % 0 in open2300-1.11 W/m2
10:11 50 °F 36.1 °F 29.6 in North 23.0 mph 41.4 mph 59 % 0 in open2300-1.11 W/m2
11:10 51.1 °F 36.9 °F 29.6 in North 29.4 mph 31.4 mph 58 % 0 in open2300-1.11 W/m2
12:11 52.9 °F 36.7 °F 29.6 in North 33.5 mph 33.5 mph 54 % 12.7 in open2300-1.11 W/m2
13:10 53.4 °F 37 °F 29.6 in NNW 30.9 mph 73.0 mph 54 % 0 in open2300-1.11 W/m2
14:11 53.6 °F 36.9 °F 29.6 in North 33.5 mph 33.5 mph 53 % 0 in open2300-1.11 W/m2
15:10 53.2 °F 36.5 °F 29.6 in North 24.1 mph 29.4 mph 53 % 0 in open2300-1.11 W/m2
16:11 52.7 °F 36 °F 29.6 in NNW 53.3 mph 53.3 mph 53 % 0 in open2300-1.11 W/m2
17:10 51.6 °F 35.1 °F 29.6 in NNE 33.1 mph 33.1 mph 53 % 0 in open2300-1.11 W/m2
18:11 50.5 °F 35.4 °F 29.6 in NNW 31.4 mph 34.9 mph 56 % 0 in open2300-1.11 W/m2
19:10 49.5 °F 35.2 °F 29.7 in North 20.6 mph 44.6 mph 58 % 0 in open2300-1.11 W/m2
20:11 48.7 °F 35.4 °F 29.7 in NNW 17.2 mph 21.9 mph 60 % 0 in open2300-1.11 W/m2
21:10 48.2 °F 35.4 °F 29.7 in NNW 6.1 mph 18.3 mph 61 % 0 in open2300-1.11 W/m2
22:11 47.8 °F 35.8 °F 29.7 in NNW 30.6 mph 30.6 mph 63 % 0 in open2300-1.11 W/m2
23:10 48 °F 35.6 °F 29.7 in WNW 21.2 mph 21.2 mph 62 % 0 in open2300-1.11 W/m2
Observations météo à CASSIS
WU-History script by Weather Underground - 1 mb